createdAt,value
2019-02-23T00:00:22.638Z,34.20
2019-02-23T00:03:26.926Z,34.10
2019-02-23T00:06:31.239Z,34.20
2019-02-23T00:09:35.856Z,34.20
2019-02-23T00:12:40.187Z,34.30
2019-02-23T00:15:44.583Z,34.20
2019-02-23T00:18:48.960Z,34.10
2019-02-23T00:21:53.312Z,34.20
2019-02-23T00:24:58.069Z,34.20
2019-02-23T00:28:02.463Z,34.20
2019-02-23T00:31:06.753Z,34.10
2019-02-23T00:34:11.064Z,34.00
2019-02-23T00:37:15.543Z,34.10
2019-02-23T00:40:20.363Z,34.10
2019-02-23T00:43:25.064Z,34.00
2019-02-23T00:46:29.418Z,34.00
2019-02-23T00:49:36.886Z,34.00
2019-02-23T00:52:41.191Z,34.00
2019-02-23T00:55:45.523Z,34.00
2019-02-23T00:58:49.815Z,34.00
2019-02-23T01:01:54.166Z,33.90
2019-02-23T01:04:58.489Z,33.90
2019-02-23T01:08:03.347Z,34.00
2019-02-23T01:11:07.676Z,33.90
2019-02-23T01:14:12.031Z,33.90
2019-02-23T01:17:16.373Z,33.80
2019-02-23T01:20:20.675Z,33.50
2019-02-23T01:23:25.451Z,33.90
2019-02-23T01:26:29.761Z,33.90
2019-02-23T01:29:34.055Z,33.80
2019-02-23T01:32:38.642Z,33.80
2019-02-23T01:35:42.932Z,33.80
2019-02-23T01:38:49.232Z,33.80
2019-02-23T01:41:53.551Z,33.80
2019-02-23T01:44:57.934Z,33.70
2019-02-23T01:48:02.293Z,33.70
2019-02-23T01:51:06.929Z,33.80
2019-02-23T01:54:11.250Z,33.90
2019-02-23T01:57:15.548Z,33.80
2019-02-23T02:00:20.188Z,33.70
2019-02-23T02:03:24.465Z,33.70
2019-02-23T02:06:28.784Z,33.70
2019-02-23T02:09:33.144Z,34.30
2019-02-23T02:12:38.885Z,33.70
2019-02-23T02:15:43.317Z,33.60
2019-02-23T02:18:47.648Z,33.70
2019-02-23T02:21:51.957Z,33.60
2019-02-23T02:24:56.264Z,33.60
2019-02-23T02:28:01.360Z,33.60
2019-02-23T02:31:05.696Z,33.50
2019-02-23T02:34:12.047Z,33.50
2019-02-23T02:37:16.392Z,33.50
2019-02-23T02:40:29.565Z,33.60
2019-02-23T02:43:33.974Z,33.50
2019-02-23T02:46:47.512Z,33.70
2019-02-23T02:49:52.120Z,33.80
2019-02-23T02:52:56.475Z,33.90
2019-02-23T02:56:00.852Z,34.00
2019-02-23T02:59:05.273Z,34.10
2019-02-23T03:02:09.603Z,34.10
2019-02-23T03:05:14.224Z,34.20
2019-02-23T03:08:18.516Z,34.20
2019-02-23T03:11:22.908Z,34.20
2019-02-23T03:14:27.211Z,34.40
2019-02-23T03:17:31.513Z,33.90
2019-02-23T03:20:37.275Z,34.40
2019-02-23T03:23:41.650Z,34.50
2019-02-23T03:26:46.010Z,34.50
2019-02-23T03:29:50.321Z,34.50
2019-02-23T03:32:54.952Z,34.90
2019-02-23T03:35:59.779Z,34.50
2019-02-23T03:39:04.742Z,34.20
2019-02-23T03:42:09.156Z,34.10
2019-02-23T03:45:13.460Z,34.20
2019-02-23T03:48:17.781Z,34.20
2019-02-23T03:51:22.407Z,34.00
2019-02-23T03:54:26.800Z,33.90
2019-02-23T03:57:31.179Z,33.90
2019-02-23T04:00:35.583Z,33.90
2019-02-23T04:03:40.273Z,33.90
2019-02-23T04:06:44.589Z,33.80
2019-02-23T04:09:48.920Z,33.80
2019-02-23T04:12:53.223Z,34.00
2019-02-23T04:15:57.612Z,33.80
2019-02-23T04:19:01.909Z,33.80
2019-02-23T04:22:06.213Z,33.70
2019-02-23T04:25:10.688Z,33.60
2019-02-23T04:28:16.627Z,33.60
2019-02-23T04:31:21.001Z,33.50
2019-02-23T04:34:25.666Z,33.50
2019-02-23T04:37:30.324Z,33.60
2019-02-23T04:40:34.681Z,33.50
2019-02-23T04:43:39.008Z,33.50
2019-02-23T04:46:44.006Z,33.40
2019-02-23T04:49:54.117Z,33.30
2019-02-23T04:52:58.830Z,33.30
2019-02-23T04:56:03.193Z,33.40
2019-02-23T04:59:07.520Z,33.30
2019-02-23T05:02:12.259Z,33.20
2019-02-23T05:05:16.577Z,33.20
2019-02-23T05:08:20.886Z,33.20
2019-02-23T05:11:25.211Z,33.10
2019-02-23T05:14:29.696Z,33.20
2019-02-23T05:17:34.012Z,33.20
2019-02-23T05:20:38.330Z,33.10
2019-02-23T05:23:46.908Z,33.00
2019-02-23T05:26:51.590Z,33.00
2019-02-23T05:29:55.978Z,32.90
2019-02-23T05:33:00.811Z,32.80
2019-02-23T05:36:05.169Z,32.70
2019-02-23T05:39:09.542Z,32.50
2019-02-23T05:42:13.887Z,32.60
2019-02-23T05:45:18.862Z,32.40
2019-02-23T05:48:23.514Z,32.30
2019-02-23T05:51:38.286Z,32.30
2019-02-23T05:54:33.953Z,32.10
2019-02-23T05:57:38.378Z,31.90
2019-02-23T06:00:42.739Z,31.90
2019-02-23T06:03:47.072Z,31.90
2019-02-23T06:06:52.518Z,32.00
2019-02-23T06:09:56.802Z,32.00
2019-02-23T06:13:01.385Z,32.00
2019-02-23T06:16:05.705Z,32.00
2019-02-23T06:19:09.999Z,32.00
2019-02-23T06:22:14.328Z,32.20
2019-02-23T06:25:18.778Z,32.60
2019-02-23T06:28:23.197Z,32.20
2019-02-23T06:31:27.529Z,32.30
2019-02-23T06:34:31.901Z,32.20
2019-02-23T06:37:36.326Z,32.10
2019-02-23T06:40:40.700Z,32.00
2019-02-23T06:43:45.095Z,31.90
2019-02-23T06:46:49.979Z,32.50
2019-02-23T06:49:54.782Z,31.80
2019-02-23T06:52:59.587Z,31.80
2019-02-23T06:56:03.872Z,31.80
2019-02-23T06:59:08.202Z,31.70
2019-02-23T07:02:12.488Z,31.70
2019-02-23T07:05:16.850Z,31.60
2019-02-23T07:08:21.586Z,31.50
2019-02-23T07:11:25.979Z,31.60
2019-02-23T07:14:30.704Z,31.40
2019-02-23T07:17:35.106Z,31.50
2019-02-23T07:20:45.369Z,31.60
2019-02-23T07:23:49.723Z,31.50
2019-02-23T07:26:54.225Z,31.60
2019-02-23T07:29:58.709Z,31.80
2019-02-23T07:33:03.024Z,32.50
2019-02-23T07:36:07.841Z,33.40
2019-02-23T07:39:12.204Z,32.70
2019-02-23T07:42:16.586Z,32.70
2019-02-23T07:45:20.933Z,32.60
2019-02-23T07:48:25.408Z,32.60
2019-02-23T07:51:29.728Z,32.80
2019-02-23T07:54:34.041Z,32.80
2019-02-23T07:57:38.680Z,33.00
2019-02-23T08:00:42.873Z,30.40
2019-02-23T08:03:47.230Z,31.50
2019-02-23T08:06:51.639Z,31.00
2019-02-23T08:09:55.973Z,30.90
2019-02-23T08:13:00.288Z,30.70
2019-02-23T08:16:04.645Z,30.50
2019-02-23T08:19:10.487Z,29.80
2019-02-23T08:22:37.116Z,29.30
2019-02-23T08:25:35.336Z,29.50
2019-02-23T08:28:39.975Z,29.70
2019-02-23T08:31:46.905Z,29.70
2019-02-23T08:34:51.172Z,29.80
2019-02-23T08:37:55.895Z,29.80
2019-02-23T08:41:00.283Z,29.70
2019-02-23T08:44:05.072Z,29.70
2019-02-23T08:47:09.441Z,30.00
2019-02-23T08:50:14.583Z,29.60
2019-02-23T08:53:18.971Z,29.50
2019-02-23T08:56:23.252Z,29.60
2019-02-23T08:59:27.903Z,29.30
2019-02-23T09:02:32.579Z,28.40
2019-02-23T09:05:38.441Z,28.60
2019-02-23T09:08:43.094Z,27.80
2019-02-23T09:11:48.703Z,27.90
2019-02-23T09:14:53.604Z,29.90
2019-02-23T09:17:58.399Z,28.80
2019-02-23T09:21:03.039Z,29.10
2019-02-23T09:24:07.779Z,29.40
2019-02-23T09:27:13.730Z,29.80
2019-02-23T09:30:18.392Z,30.00
2019-02-23T09:33:23.165Z,30.40
2019-02-23T09:36:27.656Z,30.50
2019-02-23T09:39:32.254Z,30.00
2019-02-23T09:42:36.745Z,29.60
2019-02-23T09:45:41.142Z,29.10
2019-02-23T09:48:45.481Z,26.60
2019-02-23T09:51:49.807Z,28.10
2019-02-23T09:54:54.144Z,28.60
2019-02-23T09:57:58.583Z,27.10
2019-02-23T10:01:03.621Z,27.80
2019-02-23T10:04:10.327Z,28.50
2019-02-23T10:07:18.908Z,27.80
2019-02-23T10:10:23.583Z,27.90
2019-02-23T10:13:28.226Z,28.00
2019-02-23T10:16:32.556Z,28.20
2019-02-23T10:19:36.892Z,28.30
2019-02-23T10:22:41.338Z,28.40
2019-02-23T10:25:45.640Z,28.10
2019-02-23T10:28:51.149Z,27.90
2019-02-23T10:31:55.510Z,27.80
2019-02-23T10:34:59.823Z,27.90
2019-02-23T10:38:05.732Z,28.40
2019-02-23T10:41:10.094Z,27.90
2019-02-23T10:44:14.405Z,28.10
2019-02-23T10:47:18.794Z,28.10
2019-02-23T10:50:23.167Z,28.20
2019-02-23T10:53:32.728Z,28.20
2019-02-23T10:56:35.235Z,28.30
2019-02-23T10:59:39.636Z,28.40
2019-02-23T11:02:44.411Z,28.40
2019-02-23T11:05:49.331Z,28.60
2019-02-23T11:08:54.278Z,28.60
2019-02-23T11:11:58.573Z,28.60
2019-02-23T11:15:02.967Z,28.60
2019-02-23T11:18:07.736Z,29.10
2019-02-23T11:21:12.293Z,29.60
2019-02-23T11:24:18.337Z,29.60
2019-02-23T11:27:23.200Z,29.90
2019-02-23T11:30:27.485Z,30.00
2019-02-23T11:33:31.828Z,30.10
2019-02-23T11:36:36.462Z,30.20
2019-02-23T11:39:41.179Z,30.40
2019-02-23T11:42:45.840Z,30.40
2019-02-23T11:45:50.154Z,30.50
2019-02-23T11:48:54.750Z,30.50
2019-02-23T11:51:59.080Z,29.00
2019-02-23T11:55:03.696Z,28.00
2019-02-23T11:58:08.008Z,28.50
2019-02-23T12:01:12.266Z,29.40
2019-02-23T12:04:16.669Z,29.30
2019-02-23T12:07:21.064Z,29.40
2019-02-23T12:10:25.749Z,29.50
2019-02-23T12:13:31.435Z,29.90
2019-02-23T12:16:35.817Z,29.70
2019-02-23T12:19:42.189Z,29.70
2019-02-23T12:22:46.577Z,29.80
2019-02-23T12:25:51.218Z,29.90
2019-02-23T12:28:55.565Z,30.00
2019-02-23T12:32:00.273Z,30.00
2019-02-23T12:35:05.688Z,30.10
2019-02-23T12:38:10.411Z,30.20
2019-02-23T12:41:14.735Z,30.20
2019-02-23T12:44:19.132Z,30.30
2019-02-23T12:47:23.880Z,30.50
2019-02-23T12:50:29.363Z,30.50
2019-02-23T12:53:33.788Z,30.50
2019-02-23T12:56:38.128Z,30.70
2019-02-23T12:59:42.474Z,30.80
2019-02-23T13:02:46.825Z,30.60
2019-02-23T13:05:51.278Z,30.80
2019-02-23T13:09:33.917Z,30.60
2019-02-23T13:12:56.121Z,30.40
2019-02-23T13:16:18.568Z,30.20
2019-02-23T13:19:51.271Z,30.10
2019-02-23T13:23:19.119Z,30.10
2019-02-23T13:26:57.260Z,30.10
2019-02-23T13:30:20.346Z,30.00
2019-02-23T13:34:08.493Z,30.10
2019-02-23T13:37:37.377Z,30.10
2019-02-23T13:41:24.900Z,30.10
2019-02-23T13:45:28.388Z,30.10
2019-02-23T13:49:07.732Z,30.20
2019-02-23T13:53:05.361Z,30.30
2019-02-23T13:56:52.108Z,30.40
2019-02-23T14:00:53.007Z,30.50
2019-02-23T14:04:41.815Z,30.70
2019-02-23T14:08:36.521Z,31.40
2019-02-23T14:12:09.438Z,30.80
2019-02-23T14:15:41.760Z,31.00
2019-02-23T14:19:35.894Z,31.10
2019-02-23T14:23:05.293Z,31.20
2019-02-23T14:26:49.540Z,31.50
2019-02-23T14:30:41.895Z,31.40
2019-02-23T14:34:29.044Z,31.30
2019-02-23T14:38:29.011Z,31.30
2019-02-23T14:42:13.524Z,31.30
2019-02-23T14:45:51.157Z,31.10
2019-02-23T14:49:51.942Z,31.00
2019-02-23T14:53:39.968Z,30.40
2019-02-23T14:57:21.169Z,31.00
2019-02-23T15:00:52.162Z,31.00
2019-02-23T15:04:29.924Z,30.90
2019-02-23T15:07:51.609Z,30.90
2019-02-23T15:11:37.134Z,30.90
2019-02-23T15:15:19.800Z,31.10
2019-02-23T15:19:17.495Z,31.00
2019-02-23T15:22:48.564Z,31.00
2019-02-23T15:26:18.511Z,31.10
2019-02-23T15:30:02.808Z,31.10
2019-02-23T15:33:46.639Z,31.10
2019-02-23T15:37:30.815Z,31.10
2019-02-23T15:41:21.651Z,31.10
2019-02-23T15:45:02.203Z,31.10
2019-02-23T15:48:49.423Z,31.20
2019-02-23T15:51:53.850Z,31.20
2019-02-23T15:54:58.206Z,31.30
2019-02-23T15:58:02.541Z,31.10
2019-02-23T16:01:08.942Z,31.30
2019-02-23T16:04:13.717Z,31.20
2019-02-23T16:07:18.026Z,31.30
2019-02-23T16:10:22.366Z,31.00
2019-02-23T16:13:26.764Z,30.60
2019-02-23T16:16:31.084Z,30.80
2019-02-23T16:19:36.609Z,30.90
2019-02-23T16:22:41.021Z,31.90
2019-02-23T16:25:45.320Z,32.00
2019-02-23T16:28:49.980Z,32.20
2019-02-23T16:31:55.867Z,32.50
2019-02-23T16:35:00.532Z,32.70
2019-02-23T16:38:04.910Z,32.80
2019-02-23T16:41:09.201Z,33.00
2019-02-23T16:44:13.526Z,33.10
2019-02-23T16:47:17.881Z,33.10
2019-02-23T16:50:22.283Z,33.20
2019-02-23T16:53:27.074Z,33.30
2019-02-23T16:56:31.487Z,33.40
2019-02-23T16:59:35.868Z,33.40
2019-02-23T17:02:40.174Z,33.60
2019-02-23T17:05:45.277Z,33.70
2019-02-23T17:08:50.070Z,33.70
2019-02-23T17:11:54.442Z,33.80
2019-02-23T17:14:59.085Z,33.90
2019-02-23T17:18:03.890Z,34.20
2019-02-23T17:21:09.460Z,34.10
2019-02-23T17:24:16.617Z,34.20
2019-02-23T17:27:21.349Z,34.70
2019-02-23T17:30:26.099Z,34.20
2019-02-23T17:33:30.489Z,33.90
2019-02-23T17:36:36.274Z,33.50
2019-02-23T17:39:40.586Z,33.90
2019-02-23T17:42:44.882Z,34.00
2019-02-23T17:45:49.195Z,34.10
2019-02-23T17:48:53.502Z,34.20
2019-02-23T17:51:57.825Z,34.20
2019-02-23T17:55:03.607Z,34.30
2019-02-23T17:58:07.923Z,34.40
2019-02-23T18:01:14.347Z,34.50
2019-02-23T18:04:18.984Z,34.60
2019-02-23T18:07:23.353Z,34.50
2019-02-23T18:10:27.730Z,34.70
2019-02-23T18:13:32.406Z,34.80
2019-02-23T18:16:36.829Z,34.90
2019-02-23T18:19:41.207Z,34.80
2019-02-23T18:22:47.016Z,34.90
2019-02-23T18:25:51.729Z,35.00
2019-02-23T18:28:57.215Z,34.90
2019-02-23T18:32:02.206Z,35.10
2019-02-23T18:35:07.010Z,35.00
2019-02-23T18:38:11.599Z,35.10
2019-02-23T18:41:16.026Z,35.00
2019-02-23T18:44:20.705Z,35.20
2019-02-23T18:47:25.049Z,35.10
2019-02-23T18:50:29.431Z,35.30
2019-02-23T18:53:33.733Z,36.00
2019-02-23T18:56:41.348Z,35.30
2019-02-23T18:59:46.274Z,35.20
2019-02-23T19:02:51.063Z,34.90
2019-02-23T19:05:55.486Z,35.10
2019-02-23T19:08:59.818Z,34.90
2019-02-23T19:12:04.708Z,34.50
2019-02-23T19:15:10.909Z,34.80
2019-02-23T19:18:15.247Z,34.90
2019-02-23T19:21:19.579Z,34.90
2019-02-23T19:24:24.294Z,34.90
2019-02-23T19:27:29.446Z,35.10
2019-02-23T19:30:35.332Z,35.10
2019-02-23T19:33:41.221Z,35.20
2019-02-23T19:36:45.541Z,35.10
2019-02-23T19:39:50.240Z,36.00
2019-02-23T19:42:57.156Z,35.30
2019-02-23T19:46:01.587Z,35.30
2019-02-23T19:49:06.349Z,35.30
2019-02-23T19:52:10.740Z,35.30
2019-02-23T19:55:17.994Z,35.50
2019-02-23T19:58:22.405Z,35.50
2019-02-23T20:01:27.032Z,35.50
2019-02-23T20:04:31.691Z,35.50
2019-02-23T20:07:36.383Z,35.50
2019-02-23T20:10:40.772Z,36.20
2019-02-23T20:13:45.110Z,35.60
2019-02-23T20:16:49.414Z,35.70
2019-02-23T20:19:53.790Z,35.70
2019-02-23T20:22:58.213Z,35.60
2019-02-23T20:26:02.523Z,35.70
2019-02-23T20:29:09.823Z,35.70
2019-02-23T20:32:14.270Z,35.70
2019-02-23T20:35:20.957Z,35.70
2019-02-23T20:38:25.545Z,35.80
2019-02-23T20:41:29.987Z,35.80
2019-02-23T20:44:36.143Z,35.80
2019-02-23T20:47:41.688Z,35.80
2019-02-23T20:50:46.092Z,35.80
2019-02-23T20:53:50.551Z,35.90
2019-02-23T20:57:04.093Z,35.90
2019-02-23T21:00:04.508Z,35.80
2019-02-23T21:03:08.895Z,35.90
2019-02-23T21:06:13.257Z,35.90
2019-02-23T21:09:19.193Z,36.00
2019-02-23T21:12:25.042Z,36.00
2019-02-23T21:15:30.659Z,36.60
2019-02-23T21:18:36.105Z,36.00
2019-02-23T21:21:52.636Z,36.00
2019-02-23T21:24:58.146Z,36.00
2019-02-23T21:28:02.470Z,36.10
2019-02-23T21:31:06.899Z,36.10
2019-02-23T21:34:12.298Z,36.10
2019-02-23T21:37:17.179Z,36.10
2019-02-23T21:40:21.485Z,36.20
2019-02-23T21:43:26.170Z,36.10
2019-02-23T21:46:30.516Z,36.20
2019-02-23T21:49:34.834Z,36.20
2019-02-23T21:52:39.260Z,36.20
2019-02-23T21:55:43.564Z,36.20
2019-02-23T21:58:48.000Z,36.20
2019-02-23T22:01:52.361Z,36.30
2019-02-23T22:04:56.686Z,36.30
2019-02-23T22:08:01.053Z,36.40
2019-02-23T22:11:05.448Z,36.40
2019-02-23T22:14:10.605Z,36.40
2019-02-23T22:17:16.088Z,36.50
2019-02-23T22:20:20.406Z,36.50
2019-02-23T22:23:24.799Z,36.50
2019-02-23T22:26:29.173Z,36.60
2019-02-23T22:29:33.559Z,36.50
2019-02-23T22:32:37.972Z,36.60
2019-02-23T22:35:42.328Z,36.50
2019-02-23T22:38:47.068Z,36.50
2019-02-23T22:41:51.350Z,36.60
2019-02-23T22:44:55.703Z,36.50
2019-02-23T22:48:00.358Z,36.60
2019-02-23T22:51:04.666Z,36.50
2019-02-23T22:54:09.030Z,36.50
2019-02-23T22:57:13.373Z,36.50
2019-02-23T23:00:23.679Z,36.50
2019-02-23T23:03:28.026Z,36.60
2019-02-23T23:06:32.719Z,36.60
2019-02-23T23:09:37.453Z,36.60
2019-02-23T23:12:42.093Z,36.50
2019-02-23T23:15:46.479Z,36.50
2019-02-23T23:18:50.854Z,36.60
2019-02-23T23:21:55.513Z,36.60
2019-02-23T23:24:59.807Z,36.50
2019-02-23T23:28:05.244Z,36.50
2019-02-23T23:31:10.693Z,36.50
2019-02-23T23:34:15.077Z,36.50
2019-02-23T23:37:19.418Z,36.60
2019-02-23T23:40:23.676Z,36.60
2019-02-23T23:43:28.388Z,36.50
2019-02-23T23:46:32.687Z,36.50
2019-02-23T23:49:37.013Z,36.50
2019-02-23T23:52:41.294Z,36.50
2019-02-23T23:55:45.959Z,36.50
2019-02-23T23:58:50.281Z,36.50
